sensor_id;sensor_type;location;lat;lon;timestamp;temperature;humidity
10344;DHT22;5217;43.960;10.954;2023-04-01T01:51:10;15.50;99.90
10344;DHT22;5217;43.960;10.954;2023-04-01T05:05:21;15.40;99.90
10344;DHT22;5217;43.960;10.954;2023-04-01T05:14:40;15.40;99.90
10344;DHT22;5217;43.960;10.954;2023-04-01T05:31:38;15.40;99.90
10344;DHT22;5217;43.960;10.954;2023-04-01T05:34:54;15.40;99.90
10344;DHT22;5217;43.960;10.954;2023-04-01T05:41:15;15.40;99.90
10344;DHT22;5217;43.960;10.954;2023-04-01T05:43:47;15.40;99.90
10344;DHT22;5217;43.960;10.954;2023-04-01T05:46:48;15.40;99.90
10344;DHT22;5217;43.960;10.954;2023-04-01T05:49:52;15.30;99.90
10344;DHT22;5217;43.960;10.954;2023-04-01T05:52:32;15.30;99.90
10344;DHT22;5217;43.960;10.954;2023-04-01T05:55:01;15.30;99.90
10344;DHT22;5217;43.960;10.954;2023-04-01T05:57:31;15.30;99.90
10344;DHT22;5217;43.960;10.954;2023-04-01T06:00:00;15.30;99.90
10344;DHT22;5217;43.960;10.954;2023-04-01T06:02:35;15.40;99.90
10344;DHT22;5217;43.960;10.954;2023-04-01T06:05:13;15.30;99.90
10344;DHT22;5217;43.960;10.954;2023-04-01T06:08:00;15.30;99.90
10344;DHT22;5217;43.960;10.954;2023-04-01T06:10:39;15.30;99.90
10344;DHT22;5217;43.960;10.954;2023-04-01T06:13:21;15.30;99.90
10344;DHT22;5217;43.960;10.954;2023-04-01T06:15:59;15.40;99.90
10344;DHT22;5217;43.960;10.954;2023-04-01T06:18:45;15.40;99.90
10344;DHT22;5217;43.960;10.954;2023-04-01T06:32:02;15.40;99.90
10344;DHT22;5217;43.960;10.954;2023-04-01T06:34:43;15.40;99.90
10344;DHT22;5217;43.960;10.954;2023-04-01T06:58:18;15.40;99.90
10344;DHT22;5217;43.960;10.954;2023-04-01T07:00:54;15.40;99.90
10344;DHT22;5217;43.960;10.954;2023-04-01T07:03:33;15.40;99.90
10344;DHT22;5217;43.960;10.954;2023-04-01T07:06:42;15.40;99.90
10344;DHT22;5217;43.960;10.954;2023-04-01T07:09:15;15.40;99.90
10344;DHT22;5217;43.960;10.954;2023-04-01T07:12:37;15.40;99.90
10344;DHT22;5217;43.960;10.954;2023-04-01T07:26:35;15.50;99.90
10344;DHT22;5217;43.960;10.954;2023-04-01T07:29:26;15.50;99.90
10344;DHT22;5217;43.960;10.954;2023-04-01T07:36:59;15.60;99.90
10344;DHT22;5217;43.960;10.954;2023-04-01T07:42:22;15.60;99.90
10344;DHT22;5217;43.960;10.954;2023-04-01T07:51:06;15.60;99.90
10344;DHT22;5217;43.960;10.954;2023-04-01T08:04:55;15.70;99.90
10344;DHT22;5217;43.960;10.954;2023-04-01T08:08:09;15.80;99.90
10344;DHT22;5217;43.960;10.954;2023-04-01T08:14:33;15.90;99.90
10344;DHT22;5217;43.960;10.954;2023-04-01T08:18:15;15.90;99.90
10344;DHT22;5217;43.960;10.954;2023-04-01T08:39:57;15.90;99.90
10344;DHT22;5217;43.960;10.954;2023-04-01T08:42:58;15.90;99.90
10344;DHT22;5217;43.960;10.954;2023-04-01T08:49:20;15.80;99.90
10344;DHT22;5217;43.960;10.954;2023-04-01T09:06:40;16.20;99.90
10344;DHT22;5217;43.960;10.954;2023-04-01T09:10:05;16.20;99.90
10344;DHT22;5217;43.960;10.954;2023-04-01T09:20:35;16.30;99.90
10344;DHT22;5217;43.960;10.954;2023-04-01T09:54:11;16.60;99.90
10344;DHT22;5217;43.960;10.954;2023-04-01T10:07:05;16.70;99.90
10344;DHT22;5217;43.960;10.954;2023-04-01T11:18:49;17.90;99.90
10344;DHT22;5217;43.960;10.954;2023-04-01T11:24:51;18.30;99.90
10344;DHT22;5217;43.960;10.954;2023-04-01T11:27:55;18.50;99.90
10344;DHT22;5217;43.960;10.954;2023-04-01T11:31:06;18.70;99.90
10344;DHT22;5217;43.960;10.954;2023-04-01T11:40:33;18.90;98.50
10344;DHT22;5217;43.960;10.954;2023-04-01T11:43:25;19.10;99.30
10344;DHT22;5217;43.960;10.954;2023-04-01T11:46:10;19.50;99.20
10344;DHT22;5217;43.960;10.954;2023-04-01T11:49:02;19.70;98.50
10344;DHT22;5217;43.960;10.954;2023-04-01T11:55:27;20.20;97.50
10344;DHT22;5217;43.960;10.954;2023-04-01T12:01:59;20.30;97.30
10344;DHT22;5217;43.960;10.954;2023-04-01T12:08:25;20.10;96.00
10344;DHT22;5217;43.960;10.954;2023-04-01T12:11:19;20.50;96.10
10344;DHT22;5217;43.960;10.954;2023-04-01T12:13:55;20.90;95.70
10344;DHT22;5217;43.960;10.954;2023-04-01T12:16:48;21.20;95.20
10344;DHT22;5217;43.960;10.954;2023-04-01T12:19:29;21.60;94.90
10344;DHT22;5217;43.960;10.954;2023-04-01T12:22:23;21.90;93.60
10344;DHT22;5217;43.960;10.954;2023-04-01T12:25:22;22.40;93.50
10344;DHT22;5217;43.960;10.954;2023-04-01T12:28:00;22.90;93.00
10344;DHT22;5217;43.960;10.954;2023-04-01T12:31:06;22.90;92.70
10344;DHT22;5217;43.960;10.954;2023-04-01T12:34:13;22.70;92.10
10344;DHT22;5217;43.960;10.954;2023-04-01T12:36:58;22.60;91.20
10344;DHT22;5217;43.960;10.954;2023-04-01T12:40:13;22.60;90.70
10344;DHT22;5217;43.960;10.954;2023-04-01T12:46:18;23.10;87.90
10344;DHT22;5217;43.960;10.954;2023-04-01T12:51:55;24.00;83.80
10344;DHT22;5217;43.960;10.954;2023-04-01T13:04:29;25.40;75.90
10344;DHT22;5217;43.960;10.954;2023-04-01T13:07:54;25.80;75.90
10344;DHT22;5217;43.960;10.954;2023-04-01T13:10:38;26.10;73.20
10344;DHT22;5217;43.960;10.954;2023-04-01T13:13:33;26.40;71.20
10344;DHT22;5217;43.960;10.954;2023-04-01T13:16:21;26.70;69.90
10344;DHT22;5217;43.960;10.954;2023-04-01T13:18:58;27.00;70.70
10344;DHT22;5217;43.960;10.954;2023-04-01T13:21:35;27.30;69.30
10344;DHT22;5217;43.960;10.954;2023-04-01T13:24:19;27.60;68.50
10344;DHT22;5217;43.960;10.954;2023-04-01T13:34:28;27.50;66.90
10344;DHT22;5217;43.960;10.954;2023-04-01T13:37:41;27.80;65.80
10344;DHT22;5217;43.960;10.954;2023-04-01T13:43:57;28.60;60.30
10344;DHT22;5217;43.960;10.954;2023-04-01T13:46:49;28.90;59.30
10344;DHT22;5217;43.960;10.954;2023-04-01T13:53:02;29.40;57.60
10344;DHT22;5217;43.960;10.954;2023-04-01T13:55:49;29.80;57.50
10344;DHT22;5217;43.960;10.954;2023-04-01T13:58:42;30.10;57.20
10344;DHT22;5217;43.960;10.954;2023-04-01T14:01:35;30.30;56.50
10344;DHT22;5217;43.960;10.954;2023-04-01T14:04:50;30.40;55.70
10344;DHT22;5217;43.960;10.954;2023-04-01T14:07:33;30.40;54.40
10344;DHT22;5217;43.960;10.954;2023-04-01T14:10:08;30.40;54.20
10344;DHT22;5217;43.960;10.954;2023-04-01T14:12:44;30.60;54.60
10344;DHT22;5217;43.960;10.954;2023-04-01T14:15:39;30.80;53.50
10344;DHT22;5217;43.960;10.954;2023-04-01T14:18:48;31.00;53.40
10344;DHT22;5217;43.960;10.954;2023-04-01T14:21:32;31.40;53.90
10344;DHT22;5217;43.960;10.954;2023-04-01T14:27:05;31.70;51.40
10344;DHT22;5217;43.960;10.954;2023-04-01T14:30:10;31.70;51.10
10344;DHT22;5217;43.960;10.954;2023-04-01T14:32:47;31.60;51.20
10344;DHT22;5217;43.960;10.954;2023-04-01T14:35:29;31.40;51.90
10344;DHT22;5217;43.960;10.954;2023-04-01T14:38:30;31.40;53.90
10344;DHT22;5217;43.960;10.954;2023-04-01T14:41:17;31.60;53.90
10344;DHT22;5217;43.960;10.954;2023-04-01T14:44:11;31.90;54.20
10344;DHT22;5217;43.960;10.954;2023-04-01T14:49:52;32.10;53.60
10344;DHT22;5217;43.960;10.954;2023-04-01T14:52:28;31.70;54.70
10344;DHT22;5217;43.960;10.954;2023-04-01T14:55:01;31.20;55.40
10344;DHT22;5217;43.960;10.954;2023-04-01T14:57:42;31.20;55.40
10344;DHT22;5217;43.960;10.954;2023-04-01T15:00:14;31.20;56.10
10344;DHT22;5217;43.960;10.954;2023-04-01T15:03:25;31.30;56.30
10344;DHT22;5217;43.960;10.954;2023-04-01T15:06:30;31.60;55.30
10344;DHT22;5217;43.960;10.954;2023-04-01T15:09:22;31.80;53.80
10344;DHT22;5217;43.960;10.954;2023-04-01T15:12:07;31.90;53.50
10344;DHT22;5217;43.960;10.954;2023-04-01T15:14:53;32.10;53.80
10344;DHT22;5217;43.960;10.954;2023-04-01T15:17:35;32.10;52.80
10344;DHT22;5217;43.960;10.954;2023-04-01T15:23:15;32.30;52.80
10344;DHT22;5217;43.960;10.954;2023-04-01T15:29:09;32.40;53.30
10344;DHT22;5217;43.960;10.954;2023-04-01T15:31:51;32.50;53.20
10344;DHT22;5217;43.960;10.954;2023-04-01T15:35:17;32.50;52.60
10344;DHT22;5217;43.960;10.954;2023-04-01T15:38:08;32.40;52.50
10344;DHT22;5217;43.960;10.954;2023-04-01T15:40:44;32.40;52.70
10344;DHT22;5217;43.960;10.954;2023-04-01T15:43:30;32.30;53.20
10344;DHT22;5217;43.960;10.954;2023-04-01T15:49:05;32.10;53.40
10344;DHT22;5217;43.960;10.954;2023-04-01T15:55:08;31.10;54.60
10344;DHT22;5217;43.960;10.954;2023-04-01T15:58:05;30.90;55.70
10344;DHT22;5217;43.960;10.954;2023-04-01T16:00:44;30.50;55.90
10344;DHT22;5217;43.960;10.954;2023-04-01T16:03:23;29.90;56.50
10344;DHT22;5217;43.960;10.954;2023-04-01T16:06:18;29.30;57.50
10344;DHT22;5217;43.960;10.954;2023-04-01T16:09:10;28.90;59.20
10344;DHT22;5217;43.960;10.954;2023-04-01T16:11:59;28.50;59.00
10344;DHT22;5217;43.960;10.954;2023-04-01T16:14:56;28.20;59.60
10344;DHT22;5217;43.960;10.954;2023-04-01T16:17:49;27.80;59.80
10344;DHT22;5217;43.960;10.954;2023-04-01T16:20:40;27.60;60.80
10344;DHT22;5217;43.960;10.954;2023-04-01T16:23:16;27.30;61.00
10344;DHT22;5217;43.960;10.954;2023-04-01T16:26:08;27.00;61.40
10344;DHT22;5217;43.960;10.954;2023-04-01T16:28:48;26.70;61.10
10344;DHT22;5217;43.960;10.954;2023-04-01T16:31:34;26.50;61.70
10344;DHT22;5217;43.960;10.954;2023-04-01T16:34:08;26.30;61.60
10344;DHT22;5217;43.960;10.954;2023-04-01T16:36:43;26.20;62.00
10344;DHT22;5217;43.960;10.954;2023-04-01T16:39:29;26.00;62.20
10344;DHT22;5217;43.960;10.954;2023-04-01T16:45:38;25.70;63.10
10344;DHT22;5217;43.960;10.954;2023-04-01T16:48:12;25.50;63.60
10344;DHT22;5217;43.960;10.954;2023-04-01T16:51:04;25.30;64.50
10344;DHT22;5217;43.960;10.954;2023-04-01T16:54:44;25.10;65.40
10344;DHT22;5217;43.960;10.954;2023-04-01T16:58:13;24.90;65.70
10344;DHT22;5217;43.960;10.954;2023-04-01T17:04:31;24.50;67.50
10344;DHT22;5217;43.960;10.954;2023-04-01T17:14:42;24.20;69.80
10344;DHT22;5217;43.960;10.954;2023-04-01T17:17:27;24.00;70.00
10344;DHT22;5217;43.960;10.954;2023-04-01T17:23:37;23.80;70.70
10344;DHT22;5217;43.960;10.954;2023-04-01T17:27:17;23.70;70.90
10344;DHT22;5217;43.960;10.954;2023-04-01T17:30:18;23.60;71.30
10344;DHT22;5217;43.960;10.954;2023-04-01T17:34:06;23.40;71.80
10344;DHT22;5217;43.960;10.954;2023-04-01T17:37:18;23.40;72.20
10344;DHT22;5217;43.960;10.954;2023-04-01T17:51:42;22.90;74.60
10344;DHT22;5217;43.960;10.954;2023-04-01T17:54:23;22.70;75.00
10344;DHT22;5217;43.960;10.954;2023-04-01T17:57:43;22.70;75.40
10344;DHT22;5217;43.960;10.954;2023-04-01T18:16:15;22.10;77.20
10344;DHT22;5217;43.960;10.954;2023-04-01T18:18:53;22.00;78.10
10344;DHT22;5217;43.960;10.954;2023-04-01T18:21:40;22.00;78.80
10344;DHT22;5217;43.960;10.954;2023-04-01T18:27:29;21.80;79.90
10344;DHT22;5217;43.960;10.954;2023-04-01T18:30:11;21.70;80.50
10344;DHT22;5217;43.960;10.954;2023-04-01T18:32:49;21.60;80.60
10344;DHT22;5217;43.960;10.954;2023-04-01T18:35:24;21.60;81.00
10344;DHT22;5217;43.960;10.954;2023-04-01T18:38:03;21.50;81.30
10344;DHT22;5217;43.960;10.954;2023-04-01T18:40:35;21.50;81.70
10344;DHT22;5217;43.960;10.954;2023-04-01T18:43:19;21.40;81.90
10344;DHT22;5217;43.960;10.954;2023-04-01T18:45:53;21.30;82.00
10344;DHT22;5217;43.960;10.954;2023-04-01T18:48:47;21.30;82.30
10344;DHT22;5217;43.960;10.954;2023-04-01T18:51:39;21.30;82.50
10344;DHT22;5217;43.960;10.954;2023-04-01T18:54:21;21.20;82.60
10344;DHT22;5217;43.960;10.954;2023-04-01T18:57:04;21.10;82.90
10344;DHT22;5217;43.960;10.954;2023-04-01T18:59:40;21.10;83.10
10344;DHT22;5217;43.960;10.954;2023-04-01T19:02:28;21.00;83.10
10344;DHT22;5217;43.960;10.954;2023-04-01T19:05:10;21.00;83.50
10344;DHT22;5217;43.960;10.954;2023-04-01T19:07:43;20.90;83.50
10344;DHT22;5217;43.960;10.954;2023-04-01T19:10:35;20.90;83.70
10344;DHT22;5217;43.960;10.954;2023-04-01T19:13:11;20.80;83.80
10344;DHT22;5217;43.960;10.954;2023-04-01T19:15:50;20.80;84.00
10344;DHT22;5217;43.960;10.954;2023-04-01T19:18:31;20.70;84.00
10344;DHT22;5217;43.960;10.954;2023-04-01T19:21:10;20.70;84.30
10344;DHT22;5217;43.960;10.954;2023-04-01T19:24:03;20.70;84.60
10344;DHT22;5217;43.960;10.954;2023-04-01T19:26:40;20.60;84.70
10344;DHT22;5217;43.960;10.954;2023-04-01T19:29:40;20.60;84.90
10344;DHT22;5217;43.960;10.954;2023-04-01T19:32:21;20.40;85.00
10344;DHT22;5217;43.960;10.954;2023-04-01T19:34:59;20.40;85.30
10344;DHT22;5217;43.960;10.954;2023-04-01T19:37:47;20.30;85.40
10344;DHT22;5217;43.960;10.954;2023-04-01T19:40:40;20.30;85.60
10344;DHT22;5217;43.960;10.954;2023-04-01T19:43:23;20.30;85.80
10344;DHT22;5217;43.960;10.954;2023-04-01T19:46:16;20.20;85.80
10344;DHT22;5217;43.960;10.954;2023-04-01T19:51:51;20.10;87.80
10344;DHT22;5217;43.960;10.954;2023-04-01T19:54:52;20.10;86.50
10344;DHT22;5217;43.960;10.954;2023-04-01T19:57:36;20.00;86.70
10344;DHT22;5217;43.960;10.954;2023-04-01T20:00:16;20.00;86.80
10344;DHT22;5217;43.960;10.954;2023-04-01T20:03:03;19.90;86.90
10344;DHT22;5217;43.960;10.954;2023-04-01T20:05:50;19.80;86.90
10344;DHT22;5217;43.960;10.954;2023-04-01T20:08:32;19.80;87.20
10344;DHT22;5217;43.960;10.954;2023-04-01T20:11:15;19.70;87.30
10344;DHT22;5217;43.960;10.954;2023-04-01T20:13:54;19.70;87.50
10344;DHT22;5217;43.960;10.954;2023-04-01T20:16:46;19.70;87.60
10344;DHT22;5217;43.960;10.954;2023-04-01T20:19:26;19.60;87.90
10344;DHT22;5217;43.960;10.954;2023-04-01T20:22:04;19.50;87.90
10344;DHT22;5217;43.960;10.954;2023-04-01T20:24:41;19.50;88.10
10344;DHT22;5217;43.960;10.954;2023-04-01T20:27:20;19.50;88.30
10344;DHT22;5217;43.960;10.954;2023-04-01T20:33:18;19.40;88.50
10344;DHT22;5217;43.960;10.954;2023-04-01T20:36:06;19.40;88.60
10344;DHT22;5217;43.960;10.954;2023-04-01T20:39:09;19.30;88.70
10344;DHT22;5217;43.960;10.954;2023-04-01T20:41:54;19.30;88.90
10344;DHT22;5217;43.960;10.954;2023-04-01T20:44:33;19.30;88.90
10344;DHT22;5217;43.960;10.954;2023-04-01T20:47:14;19.20;88.90
10344;DHT22;5217;43.960;10.954;2023-04-01T20:49:51;19.20;89.10
10344;DHT22;5217;43.960;10.954;2023-04-01T20:52:32;19.20;89.40
10344;DHT22;5217;43.960;10.954;2023-04-01T20:55:21;19.10;89.70
10344;DHT22;5217;43.960;10.954;2023-04-01T20:58:02;19.10;90.00
10344;DHT22;5217;43.960;10.954;2023-04-01T21:00:42;19.00;90.00
10344;DHT22;5217;43.960;10.954;2023-04-01T21:03:23;19.10;90.10
10344;DHT22;5217;43.960;10.954;2023-04-01T21:06:14;19.00;90.10
10344;DHT22;5217;43.960;10.954;2023-04-01T21:08:58;19.00;90.00
10344;DHT22;5217;43.960;10.954;2023-04-01T21:11:38;18.90;90.40
10344;DHT22;5217;43.960;10.954;2023-04-01T21:17:17;18.90;90.40
10344;DHT22;5217;43.960;10.954;2023-04-01T21:20:00;18.90;90.40
10344;DHT22;5217;43.960;10.954;2023-04-01T21:22:44;18.90;90.50
10344;DHT22;5217;43.960;10.954;2023-04-01T21:25:22;18.90;90.70
10344;DHT22;5217;43.960;10.954;2023-04-01T21:28:08;18.80;90.70
10344;DHT22;5217;43.960;10.954;2023-04-01T21:30:53;18.80;90.80
10344;DHT22;5217;43.960;10.954;2023-04-01T21:34:01;18.80;90.90
10344;DHT22;5217;43.960;10.954;2023-04-01T21:36:52;18.70;91.00
10344;DHT22;5217;43.960;10.954;2023-04-01T21:39:48;18.80;91.20
10344;DHT22;5217;43.960;10.954;2023-04-01T21:42:27;18.80;91.40
10344;DHT22;5217;43.960;10.954;2023-04-01T21:51:05;18.70;91.60
10344;DHT22;5217;43.960;10.954;2023-04-01T21:54:06;18.70;91.70
10344;DHT22;5217;43.960;10.954;2023-04-01T21:57:11;18.70;91.90
10344;DHT22;5217;43.960;10.954;2023-04-01T22:00:15;18.70;92.00
10344;DHT22;5217;43.960;10.954;2023-04-01T22:06:22;18.60;92.20
10344;DHT22;5217;43.960;10.954;2023-04-01T22:11:51;18.60;92.30
10344;DHT22;5217;43.960;10.954;2023-04-01T22:14:26;18.50;92.30
10344;DHT22;5217;43.960;10.954;2023-04-01T22:16:57;18.50;92.40
10344;DHT22;5217;43.960;10.954;2023-04-01T22:19:37;18.50;92.40
10344;DHT22;5217;43.960;10.954;2023-04-01T22:22:15;18.50;92.50
10344;DHT22;5217;43.960;10.954;2023-04-01T22:24:56;18.40;92.50
10344;DHT22;5217;43.960;10.954;2023-04-01T22:27:32;18.40;92.50
10344;DHT22;5217;43.960;10.954;2023-04-01T22:30:10;18.40;92.50
10344;DHT22;5217;43.960;10.954;2023-04-01T22:32:44;18.30;92.40
10344;DHT22;5217;43.960;10.954;2023-04-01T22:35:29;18.30;92.40
10344;DHT22;5217;43.960;10.954;2023-04-01T22:38:09;18.30;92.60
10344;DHT22;5217;43.960;10.954;2023-04-01T22:40:47;18.20;92.60
10344;DHT22;5217;43.960;10.954;2023-04-01T22:43:24;18.20;92.60
10344;DHT22;5217;43.960;10.954;2023-04-01T22:46:23;18.20;93.00
10344;DHT22;5217;43.960;10.954;2023-04-01T22:48:58;18.20;92.70
10344;DHT22;5217;43.960;10.954;2023-04-01T22:51:40;18.20;92.60
10344;DHT22;5217;43.960;10.954;2023-04-01T22:54:18;18.10;92.40
10344;DHT22;5217;43.960;10.954;2023-04-01T22:56:51;18.10;92.40
10344;DHT22;5217;43.960;10.954;2023-04-01T22:59:25;18.00;92.30
10344;DHT22;5217;43.960;10.954;2023-04-01T23:01:59;18.00;92.30
10344;DHT22;5217;43.960;10.954;2023-04-01T23:04:32;18.00;92.30
10344;DHT22;5217;43.960;10.954;2023-04-01T23:07:05;17.90;92.20
10344;DHT22;5217;43.960;10.954;2023-04-01T23:09:44;17.90;92.10
10344;DHT22;5217;43.960;10.954;2023-04-01T23:12:14;17.90;92.00
10344;DHT22;5217;43.960;10.954;2023-04-01T23:14:48;17.90;92.00
10344;DHT22;5217;43.960;10.954;2023-04-01T23:17:52;17.90;92.10
10344;DHT22;5217;43.960;10.954;2023-04-01T23:20:36;17.90;92.10
10344;DHT22;5217;43.960;10.954;2023-04-01T23:23:26;17.90;92.10
10344;DHT22;5217;43.960;10.954;2023-04-01T23:26:06;17.80;92.10
10344;DHT22;5217;43.960;10.954;2023-04-01T23:28:45;17.80;92.10
10344;DHT22;5217;43.960;10.954;2023-04-01T23:31:35;17.80;92.00
10344;DHT22;5217;43.960;10.954;2023-04-01T23:34:22;17.70;91.90
10344;DHT22;5217;43.960;10.954;2023-04-01T23:36:53;17.70;91.70
10344;DHT22;5217;43.960;10.954;2023-04-01T23:39:25;17.70;91.60
10344;DHT22;5217;43.960;10.954;2023-04-01T23:41:59;17.70;91.50
10344;DHT22;5217;43.960;10.954;2023-04-01T23:44:28;17.70;91.50
10344;DHT22;5217;43.960;10.954;2023-04-01T23:46:57;17.70;91.50
10344;DHT22;5217;43.960;10.954;2023-04-01T23:49:31;17.70;91.50
10344;DHT22;5217;43.960;10.954;2023-04-01T23:52:08;17.60;91.40
10344;DHT22;5217;43.960;10.954;2023-04-01T23:54:43;17.60;91.40
10344;DHT22;5217;43.960;10.954;2023-04-01T23:57:15;17.60;91.60
